createdAt,value
2022-10-21T00:01:30.836Z,19.20
2022-10-21T00:03:32.597Z,19.20
2022-10-21T00:05:34.273Z,19.20
2022-10-21T00:07:36.021Z,19.20
2022-10-21T00:09:37.658Z,19.20
2022-10-21T00:11:39.255Z,19.20
2022-10-21T00:13:40.913Z,19.20
2022-10-21T00:15:42.578Z,19.20
2022-10-21T00:17:44.320Z,19.20
2022-10-21T00:19:45.996Z,19.20
2022-10-21T00:21:47.612Z,19.20
2022-10-21T00:23:50.163Z,19.10
2022-10-21T00:25:55.705Z,19.20
2022-10-21T00:27:57.697Z,19.20
2022-10-21T00:29:59.372Z,19.20
2022-10-21T00:32:00.997Z,19.20
2022-10-21T00:34:02.597Z,19.10
2022-10-21T00:36:04.399Z,19.20
2022-10-21T00:38:06.099Z,19.10
2022-10-21T00:40:08.086Z,19.10
2022-10-21T00:42:33.072Z,19.10
2022-10-21T00:44:35.118Z,19.10
2022-10-21T00:47:09.220Z,19.10
2022-10-21T00:49:16.962Z,19.10
2022-10-21T00:51:18.579Z,19.10
2022-10-21T00:53:20.859Z,19.10
2022-10-21T00:55:22.985Z,19.10
2022-10-21T00:57:26.154Z,19.10
2022-10-21T00:59:33.943Z,19.10
2022-10-21T01:01:35.670Z,19.10
2022-10-21T01:03:37.338Z,19.00
2022-10-21T01:05:39.336Z,19.00
2022-10-21T01:07:41.441Z,19.10
2022-10-21T01:09:43.294Z,19.00
2022-10-21T01:11:45.922Z,19.00
2022-10-21T01:13:56.404Z,19.00
2022-10-21T01:16:04.574Z,19.00
2022-10-21T01:18:23.232Z,19.00
2022-10-21T01:20:43.579Z,19.00
2022-10-21T01:23:00.519Z,19.00
2022-10-21T01:25:02.142Z,19.00
2022-10-21T01:27:09.920Z,19.00
2022-10-21T01:29:26.884Z,19.00
2022-10-21T01:31:32.815Z,19.00
2022-10-21T01:33:53.827Z,19.00
2022-10-21T01:36:01.349Z,19.00
2022-10-21T01:38:13.072Z,18.90
2022-10-21T01:40:18.860Z,18.90
2022-10-21T01:42:25.499Z,18.90
2022-10-21T01:44:29.521Z,18.90
2022-10-21T01:46:33.372Z,18.90
2022-10-21T01:48:37.508Z,18.90
2022-10-21T01:50:42.905Z,18.90
2022-10-21T01:52:46.147Z,18.90
2022-10-21T01:54:54.604Z,18.90
2022-10-21T01:56:57.209Z,18.80
2022-10-21T01:59:00.608Z,18.90
2022-10-21T02:01:04.056Z,18.80
2022-10-21T02:03:07.444Z,18.80
2022-10-21T02:05:20.630Z,18.80
2022-10-21T02:07:22.256Z,18.80
2022-10-21T02:09:24.345Z,18.80
2022-10-21T02:11:27.268Z,18.80
2022-10-21T02:13:52.020Z,18.80
2022-10-21T02:15:54.829Z,18.80
2022-10-21T02:18:02.713Z,18.80
2022-10-21T02:20:06.609Z,18.80
2022-10-21T02:22:08.832Z,18.70
2022-10-21T02:24:10.469Z,18.70
2022-10-21T02:26:12.239Z,18.70
2022-10-21T02:28:14.360Z,18.70
2022-10-21T02:30:16.205Z,18.70
2022-10-21T02:32:46.992Z,18.70
2022-10-21T02:34:55.433Z,18.70
2022-10-21T02:37:01.922Z,18.70
2022-10-21T02:39:07.811Z,18.60
2022-10-21T02:41:10.727Z,18.60
2022-10-21T02:43:15.303Z,18.60
2022-10-21T02:45:17.740Z,18.60
2022-10-21T02:47:19.626Z,18.60
2022-10-21T02:49:21.256Z,18.60
2022-10-21T02:51:22.927Z,18.60
2022-10-21T02:53:24.578Z,18.60
2022-10-21T02:55:26.247Z,18.60
2022-10-21T02:57:27.867Z,18.60
2022-10-21T02:59:29.524Z,18.60
2022-10-21T03:01:31.199Z,18.60
2022-10-21T03:03:32.913Z,18.60
2022-10-21T03:05:34.609Z,18.60
2022-10-21T03:07:36.546Z,18.60
2022-10-21T03:09:38.458Z,18.60
2022-10-21T03:11:40.085Z,18.60
2022-10-21T03:13:41.734Z,18.60
2022-10-21T03:15:43.506Z,18.60
2022-10-21T03:17:45.144Z,18.60
2022-10-21T03:19:46.782Z,18.60
2022-10-21T03:21:48.400Z,18.60
2022-10-21T03:23:50.044Z,18.60
2022-10-21T03:25:51.749Z,18.60
2022-10-21T03:27:54.963Z,18.60
2022-10-21T03:29:56.589Z,18.60
2022-10-21T03:31:58.289Z,18.70
2022-10-21T03:34:00.027Z,18.60
2022-10-21T03:36:01.642Z,18.60
2022-10-21T03:38:03.339Z,18.60
2022-10-21T03:40:08.585Z,18.60
2022-10-21T03:42:13.172Z,18.60
2022-10-21T03:44:14.844Z,18.60
2022-10-21T03:46:16.456Z,18.60
2022-10-21T03:48:18.325Z,18.60
2022-10-21T03:50:23.782Z,18.60
2022-10-21T03:52:27.903Z,18.60
2022-10-21T03:54:29.592Z,18.60
2022-10-21T03:56:31.219Z,18.60
2022-10-21T03:58:35.297Z,18.60
2022-10-21T04:00:36.974Z,18.60
2022-10-21T04:02:38.928Z,18.60
2022-10-21T04:04:40.764Z,18.60
2022-10-21T04:06:42.367Z,18.60
2022-10-21T04:08:44.057Z,18.60
2022-10-21T04:10:45.904Z,18.50
2022-10-21T04:12:47.821Z,18.50
2022-10-21T04:14:49.438Z,18.50
2022-10-21T04:17:02.164Z,18.50
2022-10-21T04:19:04.220Z,18.50
2022-10-21T04:21:05.993Z,18.50
2022-10-21T04:23:07.592Z,18.50
2022-10-21T04:25:09.481Z,18.50
2022-10-21T04:27:11.109Z,18.50
2022-10-21T04:29:12.801Z,18.50
2022-10-21T04:31:14.388Z,18.50
2022-10-21T04:33:16.096Z,18.50
2022-10-21T04:35:18.099Z,18.50
2022-10-21T04:37:19.744Z,18.40
2022-10-21T04:39:21.351Z,18.50
2022-10-21T04:41:23.002Z,18.40
2022-10-21T04:43:25.131Z,18.50
2022-10-21T04:45:26.784Z,18.40
2022-10-21T04:47:28.503Z,18.40
2022-10-21T04:49:30.128Z,18.40
2022-10-21T04:53:33.341Z,18.40
2022-10-21T04:55:34.979Z,18.40
2022-10-21T04:57:36.581Z,18.40
2022-10-21T04:59:38.222Z,18.50
2022-10-21T05:01:39.937Z,18.40
2022-10-21T05:03:41.551Z,18.40
2022-10-21T05:05:43.197Z,18.40
2022-10-21T05:07:44.892Z,18.40
2022-10-21T05:09:46.511Z,18.40
2022-10-21T05:11:48.198Z,18.40
2022-10-21T05:13:49.841Z,18.40
2022-10-21T05:15:51.474Z,18.40
2022-10-21T05:17:53.258Z,18.40
2022-10-21T05:19:54.856Z,18.40
2022-10-21T05:21:56.569Z,18.40
2022-10-21T05:23:58.291Z,18.40
2022-10-21T05:25:59.921Z,18.40
2022-10-21T05:28:01.595Z,18.40
2022-10-21T05:30:04.193Z,18.40
2022-10-21T05:32:05.917Z,18.40
2022-10-21T05:34:07.525Z,18.40
2022-10-21T05:36:09.242Z,18.40
2022-10-21T05:38:10.863Z,18.40
2022-10-21T05:40:12.773Z,18.40
2022-10-21T05:42:14.398Z,18.40
2022-10-21T05:44:16.120Z,18.40
2022-10-21T05:46:17.987Z,18.40
2022-10-21T05:48:19.942Z,18.40
2022-10-21T05:50:21.661Z,18.40
2022-10-21T05:52:23.282Z,18.40
2022-10-21T05:54:24.937Z,18.40
2022-10-21T05:56:26.620Z,18.40
2022-10-21T05:58:29.507Z,18.40
2022-10-21T06:00:31.118Z,18.40
2022-10-21T06:02:33.158Z,18.40
2022-10-21T06:04:37.939Z,18.50
2022-10-21T06:06:40.569Z,18.40
2022-10-21T06:08:42.275Z,18.50
2022-10-21T06:10:44.354Z,18.50
2022-10-21T06:12:45.984Z,18.50
2022-10-21T06:14:47.614Z,18.50
2022-10-21T06:16:49.240Z,18.50
2022-10-21T06:18:50.939Z,18.50
2022-10-21T06:20:52.789Z,18.50
2022-10-21T06:22:54.521Z,18.50
2022-10-21T06:24:56.135Z,18.50
2022-10-21T06:26:57.861Z,18.50
2022-10-21T06:28:59.626Z,18.50
2022-10-21T06:31:01.324Z,18.50
2022-10-21T06:33:02.986Z,18.50
2022-10-21T06:35:04.763Z,18.50
2022-10-21T06:37:06.413Z,18.50
2022-10-21T06:39:08.251Z,18.60
2022-10-21T06:41:13.363Z,18.60
2022-10-21T06:43:15.906Z,18.60
2022-10-21T06:45:17.579Z,18.60
2022-10-21T06:47:19.219Z,18.60
2022-10-21T06:49:20.930Z,18.60
2022-10-21T06:51:24.247Z,18.60
2022-10-21T06:53:25.936Z,18.60
2022-10-21T06:55:27.571Z,18.60
2022-10-21T06:57:29.216Z,18.60
2022-10-21T06:59:30.908Z,18.60
2022-10-21T07:01:48.468Z,18.60
2022-10-21T07:03:57.131Z,18.70
2022-10-21T07:05:59.231Z,18.70
2022-10-21T07:08:00.905Z,18.70
2022-10-21T07:10:02.658Z,18.70
2022-10-21T07:12:04.695Z,18.70
2022-10-21T07:14:07.438Z,18.70
2022-10-21T07:16:21.071Z,18.70
2022-10-21T07:18:22.749Z,18.70
2022-10-21T07:20:24.491Z,18.70
2022-10-21T07:22:26.184Z,18.70
2022-10-21T07:24:27.825Z,18.70
2022-10-21T07:26:30.531Z,18.70
2022-10-21T07:28:32.547Z,18.70
2022-10-21T07:30:39.055Z,18.70
2022-10-21T07:32:40.747Z,18.70
2022-10-21T07:34:42.381Z,18.70
2022-10-21T07:36:47.868Z,18.80
2022-10-21T07:38:50.134Z,18.80
2022-10-21T07:40:51.874Z,18.80
2022-10-21T07:42:53.606Z,18.80
2022-10-21T07:44:59.303Z,18.80
2022-10-21T07:47:00.958Z,18.80
2022-10-21T07:49:02.587Z,18.80
2022-10-21T07:51:05.287Z,18.80
2022-10-21T07:53:12.522Z,18.80
2022-10-21T07:55:15.427Z,18.80
2022-10-21T07:57:17.071Z,18.80
2022-10-21T07:59:19.276Z,18.80
2022-10-21T08:01:21.325Z,18.80
2022-10-21T08:03:22.988Z,18.80
2022-10-21T08:05:24.953Z,18.80
2022-10-21T08:07:26.610Z,18.80
2022-10-21T08:09:28.328Z,18.90
2022-10-21T08:11:31.069Z,18.90
2022-10-21T08:13:33.373Z,18.90
2022-10-21T08:15:35.157Z,18.90
2022-10-21T08:17:36.885Z,18.90
2022-10-21T08:19:38.548Z,18.90
2022-10-21T08:21:40.250Z,19.00
2022-10-21T08:23:41.949Z,18.90
2022-10-21T08:25:50.687Z,19.00
2022-10-21T08:27:52.345Z,19.00
2022-10-21T08:29:54.037Z,19.00
2022-10-21T08:31:56.188Z,19.00
2022-10-21T08:33:59.014Z,19.00
2022-10-21T08:36:04.810Z,19.00
2022-10-21T08:40:09.898Z,19.00
2022-10-21T08:42:12.454Z,19.00
2022-10-21T08:44:24.231Z,19.10
2022-10-21T08:46:34.700Z,19.10
2022-10-21T08:48:39.361Z,19.10
2022-10-21T08:50:42.631Z,19.10
2022-10-21T08:52:44.368Z,19.10
2022-10-21T08:54:52.061Z,19.10
2022-10-21T08:56:56.072Z,19.10
2022-10-21T08:58:57.739Z,19.10
2022-10-21T09:01:02.808Z,19.10
2022-10-21T09:03:19.861Z,19.10
2022-10-21T09:05:27.593Z,19.20
2022-10-21T09:07:33.558Z,19.20
2022-10-21T09:09:35.192Z,19.20
2022-10-21T09:11:56.154Z,19.20
2022-10-21T09:14:13.134Z,19.20
2022-10-21T09:16:33.687Z,19.20
2022-10-21T09:19:04.453Z,19.20
2022-10-21T09:21:08.833Z,19.20
2022-10-21T09:23:38.216Z,19.20
2022-10-21T09:25:59.849Z,19.20
2022-10-21T09:28:09.053Z,19.20
2022-10-21T09:30:14.946Z,19.20
2022-10-21T09:32:16.597Z,19.20
2022-10-21T09:34:21.661Z,19.20
2022-10-21T09:36:31.197Z,19.20
2022-10-21T09:38:43.421Z,19.20
2022-10-21T09:40:47.143Z,19.20
2022-10-21T09:42:50.184Z,19.30
2022-10-21T09:44:52.136Z,19.20
2022-10-21T09:46:54.144Z,19.30
2022-10-21T09:51:26.977Z,19.30
2022-10-21T09:53:31.670Z,19.20
2022-10-21T09:55:33.555Z,19.20
2022-10-21T09:57:42.476Z,19.20
2022-10-21T09:59:59.014Z,19.20
2022-10-21T10:02:08.293Z,19.20
2022-10-21T10:04:14.417Z,19.20
2022-10-21T10:06:30.526Z,19.20
2022-10-21T10:08:32.388Z,19.20
2022-10-21T10:10:34.177Z,19.20
2022-10-21T10:12:36.121Z,19.20
2022-10-21T10:14:39.372Z,19.20
2022-10-21T10:16:41.069Z,19.10
2022-10-21T10:18:43.843Z,19.10
2022-10-21T10:20:45.461Z,19.10
2022-10-21T10:23:07.215Z,19.10
2022-10-21T10:25:11.811Z,19.10
2022-10-21T10:27:15.356Z,19.00
2022-10-21T10:29:19.889Z,19.00
2022-10-21T10:31:26.034Z,19.10
2022-10-21T10:33:32.553Z,19.00
2022-10-21T10:35:35.673Z,19.00
2022-10-21T10:37:37.945Z,19.00
2022-10-21T10:39:39.991Z,19.00
2022-10-21T10:41:45.533Z,19.00
2022-10-21T10:43:47.210Z,19.00
2022-10-21T10:45:51.449Z,19.00
2022-10-21T10:47:57.604Z,19.00
2022-10-21T10:49:59.355Z,18.90
2022-10-21T10:52:10.072Z,18.90
2022-10-21T10:54:17.755Z,18.90
2022-10-21T10:56:26.181Z,18.90
2022-10-21T10:58:29.237Z,18.90
2022-10-21T11:00:32.486Z,18.90
2022-10-21T11:02:46.230Z,18.90
2022-10-21T11:05:03.260Z,18.90
2022-10-21T11:07:29.253Z,18.90
2022-10-21T11:09:51.208Z,18.90
2022-10-21T11:11:55.739Z,18.90
2022-10-21T11:13:57.773Z,18.90
2022-10-21T11:16:06.981Z,18.90
2022-10-21T11:18:33.571Z,18.90
2022-10-21T11:20:48.674Z,19.00
2022-10-21T11:22:59.247Z,19.00
2022-10-21T11:25:28.927Z,19.00
2022-10-21T11:27:36.903Z,19.00
2022-10-21T11:30:01.850Z,19.00
2022-10-21T11:32:11.642Z,19.00
2022-10-21T11:34:22.345Z,19.10
2022-10-21T11:36:31.153Z,19.10
2022-10-21T11:38:53.089Z,19.10
2022-10-21T11:41:04.072Z,19.10
2022-10-21T11:43:15.706Z,19.10
2022-10-21T11:45:29.472Z,19.10
2022-10-21T11:47:40.502Z,19.10
2022-10-21T11:50:01.004Z,19.20
2022-10-21T11:52:21.357Z,19.20
2022-10-21T11:54:26.019Z,19.20
2022-10-21T11:56:30.642Z,19.20
2022-10-21T11:58:44.403Z,19.20
2022-10-21T12:00:53.432Z,19.20
2022-10-21T12:02:55.032Z,19.30
2022-10-21T12:05:11.498Z,19.30
2022-10-21T12:07:17.289Z,19.30
2022-10-21T12:09:26.465Z,19.30
2022-10-21T12:11:36.122Z,19.30
2022-10-21T12:14:07.236Z,19.30
2022-10-21T12:16:11.911Z,19.30
2022-10-21T12:18:17.354Z,19.30
2022-10-21T12:20:24.111Z,19.30
2022-10-21T12:22:28.003Z,19.30
2022-10-21T12:24:48.246Z,19.30
2022-10-21T12:26:52.990Z,19.40
2022-10-21T12:29:01.745Z,19.40
2022-10-21T12:31:12.445Z,19.40
2022-10-21T12:33:21.770Z,19.40
2022-10-21T12:35:47.172Z,19.40
2022-10-21T12:37:51.859Z,19.40
2022-10-21T12:40:08.360Z,19.50
2022-10-21T12:42:14.105Z,19.40
2022-10-21T12:44:28.353Z,19.50
2022-10-21T12:46:40.261Z,19.50
2022-10-21T12:48:45.909Z,19.50
2022-10-21T12:50:55.908Z,19.50
2022-10-21T12:53:15.890Z,19.60
2022-10-21T12:55:19.528Z,19.60
2022-10-21T12:57:27.005Z,19.60
2022-10-21T12:59:41.898Z,19.60
2022-10-21T13:01:45.312Z,19.70
2022-10-21T13:03:52.026Z,19.70
2022-10-21T13:06:02.182Z,19.70
2022-10-21T13:08:27.201Z,19.70
2022-10-21T13:10:29.271Z,19.70
2022-10-21T13:12:31.678Z,19.70
2022-10-21T13:14:47.186Z,19.70
2022-10-21T13:16:48.849Z,19.70
2022-10-21T13:18:50.577Z,19.70
2022-10-21T13:20:58.224Z,19.70
2022-10-21T13:23:19.869Z,19.70
2022-10-21T13:25:24.636Z,19.70
2022-10-21T13:27:30.940Z,19.70
2022-10-21T13:29:40.662Z,19.80
2022-10-21T13:31:42.540Z,19.80
2022-10-21T13:33:50.217Z,19.80
2022-10-21T13:36:15.125Z,19.80
2022-10-21T13:38:24.422Z,19.80
2022-10-21T13:40:45.092Z,19.80
2022-10-21T13:42:49.233Z,19.80
2022-10-21T13:44:51.915Z,19.90
2022-10-21T13:46:53.625Z,19.90
2022-10-21T13:48:59.552Z,19.90
2022-10-21T13:51:06.004Z,19.90
2022-10-21T13:53:35.454Z,19.90
2022-10-21T13:55:37.153Z,19.90
2022-10-21T13:57:39.526Z,20.00
2022-10-21T13:59:41.423Z,20.00
2022-10-21T14:01:46.377Z,20.00
2022-10-21T14:03:51.775Z,20.00
2022-10-21T14:06:00.257Z,20.00
2022-10-21T14:08:03.012Z,20.00
2022-10-21T14:10:07.537Z,20.00
2022-10-21T14:12:18.013Z,20.00
2022-10-21T14:14:22.680Z,20.00
2022-10-21T14:16:32.742Z,20.00
2022-10-21T14:18:39.400Z,20.00
2022-10-21T14:20:41.162Z,20.00
2022-10-21T14:22:47.340Z,20.00
2022-10-21T14:24:52.754Z,20.00
2022-10-21T14:26:55.132Z,20.00
2022-10-21T14:28:58.298Z,20.00
2022-10-21T14:31:01.292Z,20.00
2022-10-21T14:33:04.244Z,20.00
2022-10-21T14:35:21.251Z,20.10
2022-10-21T14:37:23.117Z,20.10
2022-10-21T14:39:24.843Z,20.10
2022-10-21T14:41:29.314Z,20.00
2022-10-21T14:43:33.320Z,20.00
2022-10-21T14:45:36.055Z,20.00
2022-10-21T14:47:37.767Z,20.10
2022-10-21T14:49:47.398Z,20.00
2022-10-21T14:51:49.460Z,20.00
2022-10-21T14:53:51.339Z,20.10
2022-10-21T14:55:55.834Z,20.10
2022-10-21T14:58:02.816Z,20.10
2022-10-21T15:00:05.668Z,20.10
2022-10-21T15:02:17.108Z,20.10
2022-10-21T15:04:37.378Z,20.10
2022-10-21T15:06:39.991Z,20.10
2022-10-21T15:08:58.188Z,20.10
2022-10-21T15:11:06.165Z,20.10
2022-10-21T15:13:20.350Z,20.10
2022-10-21T15:15:40.146Z,20.10
2022-10-21T15:17:42.029Z,20.20
2022-10-21T15:19:48.294Z,20.10
2022-10-21T15:21:58.109Z,20.10
2022-10-21T15:23:59.976Z,20.10
2022-10-21T15:26:05.705Z,20.10
2022-10-21T15:28:11.123Z,20.10
2022-10-21T15:30:12.747Z,20.10
2022-10-21T15:32:25.479Z,20.10
2022-10-21T15:34:29.907Z,20.20
2022-10-21T15:36:31.607Z,20.10
2022-10-21T15:38:33.411Z,20.20
2022-10-21T15:40:35.063Z,20.20
2022-10-21T15:42:36.825Z,20.10
2022-10-21T15:44:38.548Z,20.10
2022-10-21T15:46:46.203Z,20.10
2022-10-21T15:48:48.748Z,20.20
2022-10-21T15:50:50.438Z,20.20
2022-10-21T15:52:52.692Z,20.20
2022-10-21T15:54:54.606Z,20.20
2022-10-21T15:56:57.581Z,20.20
2022-10-21T15:58:59.210Z,20.10
2022-10-21T16:01:01.026Z,20.10
2022-10-21T16:03:02.836Z,20.10
2022-10-21T16:05:04.687Z,20.10
2022-10-21T16:07:13.690Z,20.10
2022-10-21T16:09:19.825Z,20.10
2022-10-21T16:11:34.659Z,20.10
2022-10-21T16:13:43.252Z,20.10
2022-10-21T16:15:44.982Z,20.10
2022-10-21T16:17:48.050Z,20.10
2022-10-21T16:19:49.724Z,20.10
2022-10-21T16:21:51.388Z,20.10
2022-10-21T16:23:53.202Z,20.10
2022-10-21T16:25:56.075Z,20.00
2022-10-21T16:27:57.739Z,20.00
2022-10-21T16:29:59.460Z,20.00
2022-10-21T16:32:01.083Z,20.00
2022-10-21T16:34:02.762Z,20.00
2022-10-21T16:36:25.280Z,20.00
2022-10-21T16:38:27.005Z,20.00
2022-10-21T16:40:31.614Z,20.00
2022-10-21T16:42:33.283Z,20.00
2022-10-21T16:44:34.967Z,20.00
2022-10-21T16:46:40.790Z,20.00
2022-10-21T16:48:42.888Z,20.00
2022-10-21T16:50:45.597Z,19.90
2022-10-21T16:52:47.274Z,20.00
2022-10-21T16:54:50.212Z,19.90
2022-10-21T16:56:54.918Z,19.90
2022-10-21T16:58:57.096Z,20.00
2022-10-21T17:00:58.872Z,19.90
2022-10-21T17:03:00.573Z,19.90
2022-10-21T17:05:02.224Z,19.90
2022-10-21T17:07:03.940Z,19.90
2022-10-21T17:09:09.103Z,19.90
2022-10-21T17:11:14.081Z,19.90
2022-10-21T17:13:15.750Z,19.80
2022-10-21T17:15:17.410Z,19.80
2022-10-21T17:17:21.045Z,19.80
2022-10-21T17:19:23.989Z,19.80
2022-10-21T17:21:27.572Z,19.80
2022-10-21T17:23:29.341Z,19.80
2022-10-21T17:25:31.236Z,19.80
2022-10-21T17:27:34.355Z,19.80
2022-10-21T17:29:36.031Z,19.80
2022-10-21T17:31:38.154Z,19.80
2022-10-21T17:33:39.831Z,19.80
2022-10-21T17:35:41.499Z,19.70
2022-10-21T17:37:43.138Z,19.70
2022-10-21T17:39:44.804Z,19.70
2022-10-21T17:43:49.263Z,19.70
2022-10-21T17:45:51.068Z,19.70
2022-10-21T17:47:53.150Z,19.70
2022-10-21T17:49:54.787Z,19.60
2022-10-21T17:51:56.571Z,19.70
2022-10-21T17:53:59.204Z,19.70
2022-10-21T17:56:02.468Z,19.70
2022-10-21T17:58:04.124Z,19.70
2022-10-21T18:00:06.120Z,19.60
2022-10-21T18:02:08.927Z,19.60
2022-10-21T18:04:13.661Z,19.60
2022-10-21T18:06:15.829Z,19.60
2022-10-21T18:08:17.704Z,19.60
2022-10-21T18:10:19.349Z,19.60
2022-10-21T18:12:21.765Z,19.60
2022-10-21T18:14:23.665Z,19.60
2022-10-21T18:16:25.935Z,19.60
2022-10-21T18:18:27.601Z,19.60
2022-10-21T18:20:29.270Z,19.50
2022-10-21T18:22:31.018Z,19.50
2022-10-21T18:24:33.000Z,19.50
2022-10-21T18:26:34.845Z,19.50
2022-10-21T18:28:36.590Z,19.50
2022-10-21T18:30:44.179Z,19.50
2022-10-21T18:32:45.940Z,19.50
2022-10-21T18:34:47.567Z,19.50
2022-10-21T18:36:49.395Z,19.40
2022-10-21T18:38:51.512Z,19.40
2022-10-21T18:41:01.934Z,19.40
2022-10-21T18:43:04.015Z,19.40
2022-10-21T18:45:06.257Z,19.40
2022-10-21T18:47:07.940Z,19.40
2022-10-21T18:49:13.620Z,19.40
2022-10-21T18:51:16.438Z,19.30
2022-10-21T18:53:18.298Z,19.30
2022-10-21T18:55:20.027Z,19.30
2022-10-21T18:57:21.732Z,19.30
2022-10-21T18:59:23.487Z,19.30
2022-10-21T19:01:25.772Z,19.30
2022-10-21T19:03:27.738Z,19.30
2022-10-21T19:05:29.511Z,19.30
2022-10-21T19:07:31.253Z,19.30
2022-10-21T19:09:32.940Z,19.20
2022-10-21T19:11:34.653Z,19.20
2022-10-21T19:13:36.465Z,19.20
2022-10-21T19:15:38.251Z,19.20
2022-10-21T19:17:41.788Z,19.20
2022-10-21T19:19:43.885Z,19.20
2022-10-21T19:21:45.572Z,19.20
2022-10-21T19:23:47.321Z,19.20
2022-10-21T19:25:48.987Z,19.20
2022-10-21T19:27:50.720Z,19.20
2022-10-21T19:29:52.623Z,19.20
2022-10-21T19:31:55.792Z,19.20
2022-10-21T19:33:58.783Z,19.20
2022-10-21T19:36:01.340Z,19.10
2022-10-21T19:38:05.259Z,19.10
2022-10-21T19:40:13.467Z,19.10
2022-10-21T19:42:15.342Z,19.10
2022-10-21T19:44:17.183Z,19.10
2022-10-21T19:46:23.467Z,19.10
2022-10-21T19:48:27.243Z,19.10
2022-10-21T19:50:29.046Z,19.10
2022-10-21T19:52:30.800Z,19.10
2022-10-21T19:54:32.614Z,19.10
2022-10-21T19:56:35.094Z,19.00
2022-10-21T19:58:39.408Z,19.00
2022-10-21T20:00:41.109Z,19.00
2022-10-21T20:02:42.956Z,19.00
2022-10-21T20:04:44.781Z,19.00
2022-10-21T20:06:47.802Z,19.00
2022-10-21T20:08:51.262Z,19.00
2022-10-21T20:11:02.552Z,19.00
2022-10-21T20:13:04.221Z,19.00
2022-10-21T20:15:06.055Z,19.00
2022-10-21T20:17:07.900Z,19.00
2022-10-21T20:19:10.728Z,19.00
2022-10-21T20:21:12.973Z,19.00
2022-10-21T20:23:14.798Z,19.00
2022-10-21T20:25:16.562Z,19.00
2022-10-21T20:27:18.373Z,19.00
2022-10-21T20:29:20.167Z,19.00
2022-10-21T20:31:22.063Z,19.00
2022-10-21T20:33:24.438Z,19.00
2022-10-21T20:35:26.474Z,18.90
2022-10-21T20:37:30.824Z,19.00
2022-10-21T20:39:32.579Z,19.00
2022-10-21T20:41:36.249Z,19.00
2022-10-21T20:43:39.554Z,19.00
2022-10-21T20:45:41.305Z,19.00
2022-10-21T20:47:43.452Z,19.00
2022-10-21T20:49:45.312Z,19.00
2022-10-21T20:51:47.061Z,19.00
2022-10-21T20:53:50.269Z,19.00
2022-10-21T20:55:55.866Z,18.90
2022-10-21T20:57:57.522Z,18.90
2022-10-21T20:59:59.157Z,18.90
2022-10-21T21:02:00.829Z,19.00
2022-10-21T21:04:05.018Z,19.00
2022-10-21T21:06:07.097Z,19.00
2022-10-21T21:08:08.899Z,19.00
2022-10-21T21:10:10.708Z,19.00
2022-10-21T21:12:12.479Z,19.00
2022-10-21T21:14:14.264Z,19.00
2022-10-21T21:16:16.888Z,19.00
2022-10-21T21:18:18.782Z,19.00
2022-10-21T21:20:20.492Z,19.00
2022-10-21T21:22:22.153Z,19.00
2022-10-21T21:24:23.892Z,19.00
2022-10-21T21:26:26.910Z,19.00
2022-10-21T21:28:30.637Z,19.00
2022-10-21T21:30:34.533Z,19.00
2022-10-21T21:32:36.188Z,19.00
2022-10-21T21:34:37.855Z,19.00
2022-10-21T21:36:39.703Z,19.00
2022-10-21T21:38:41.554Z,19.00
2022-10-21T21:40:46.594Z,19.00
2022-10-21T21:42:48.721Z,19.00
2022-10-21T21:44:50.485Z,19.00
2022-10-21T21:46:52.111Z,19.00
2022-10-21T21:49:00.868Z,19.00
2022-10-21T21:51:06.183Z,19.00
2022-10-21T21:53:09.380Z,19.00
2022-10-21T21:55:11.072Z,19.00
2022-10-21T21:57:28.661Z,19.00
2022-10-21T21:59:30.593Z,19.00
2022-10-21T22:01:32.430Z,19.00
2022-10-21T22:03:34.109Z,19.00
2022-10-21T22:05:35.837Z,19.00
2022-10-21T22:07:37.698Z,19.00
2022-10-21T22:09:39.546Z,19.00
2022-10-21T22:11:41.224Z,19.00
2022-10-21T22:13:43.282Z,19.00
2022-10-21T22:15:48.047Z,19.00
2022-10-21T22:17:50.814Z,19.00
2022-10-21T22:19:53.954Z,19.00
2022-10-21T22:21:55.786Z,19.00
2022-10-21T22:23:57.528Z,19.00
2022-10-21T22:25:59.532Z,19.00
2022-10-21T22:28:01.184Z,19.00
2022-10-21T22:30:03.899Z,19.00
2022-10-21T22:32:05.554Z,19.00
2022-10-21T22:34:10.925Z,19.00
2022-10-21T22:36:16.231Z,19.00
2022-10-21T22:38:17.969Z,19.00
2022-10-21T22:40:19.669Z,19.00
2022-10-21T22:42:21.337Z,19.00
2022-10-21T22:44:23.144Z,19.00
2022-10-21T22:46:40.202Z,19.00
2022-10-21T22:48:41.997Z,19.00
2022-10-21T22:50:43.675Z,19.00
2022-10-21T22:52:45.545Z,19.00
2022-10-21T22:54:49.849Z,19.00
2022-10-21T22:56:51.802Z,19.00
2022-10-21T22:58:53.836Z,19.10
2022-10-21T23:03:05.019Z,19.00
2022-10-21T23:05:10.531Z,19.00
2022-10-21T23:07:12.163Z,19.00
2022-10-21T23:09:13.902Z,19.00
2022-10-21T23:11:15.762Z,19.00
2022-10-21T23:13:18.044Z,19.00
2022-10-21T23:15:19.839Z,19.00
2022-10-21T23:17:21.478Z,19.00
2022-10-21T23:19:23.198Z,19.00
2022-10-21T23:21:24.813Z,19.00
2022-10-21T23:23:26.434Z,19.00
2022-10-21T23:25:28.107Z,19.00
2022-10-21T23:27:29.986Z,19.00
2022-10-21T23:29:31.623Z,19.00
2022-10-21T23:31:33.353Z,19.00
2022-10-21T23:33:35.065Z,19.00
2022-10-21T23:35:36.705Z,19.00
2022-10-21T23:37:38.575Z,19.00
2022-10-21T23:39:40.413Z,19.00
2022-10-21T23:41:42.044Z,19.00
2022-10-21T23:43:43.719Z,19.00
2022-10-21T23:45:45.350Z,19.00
2022-10-21T23:47:47.066Z,19.00
2022-10-21T23:49:48.693Z,19.00
2022-10-21T23:51:50.339Z,19.00
2022-10-21T23:53:52.014Z,19.00
2022-10-21T23:55:53.637Z,19.00
2022-10-21T23:57:57.359Z,19.00
2022-10-21T23:59:59.059Z,19.00
